createdAt,value
2023-01-26T00:01:46.250Z,0.80
2023-01-26T00:04:14.248Z,0.80
2023-01-26T00:06:42.258Z,0.80
2023-01-26T00:09:15.552Z,0.90
2023-01-26T00:11:43.748Z,0.90
2023-01-26T00:14:11.640Z,0.90
2023-01-26T00:16:40.331Z,0.90
2023-01-26T00:19:09.338Z,0.90
2023-01-26T00:21:37.231Z,0.90
2023-01-26T00:24:05.748Z,0.90
2023-01-26T00:26:33.771Z,0.90
2023-01-26T00:29:02.554Z,0.90
2023-01-26T00:31:30.617Z,0.80
2023-01-26T00:34:00.672Z,0.90
2023-01-26T00:36:29.618Z,0.90
2023-01-26T00:38:57.846Z,0.80
2023-01-26T00:41:46.870Z,0.80
2023-01-26T00:44:16.654Z,0.80
2023-01-26T00:46:44.589Z,0.80
2023-01-26T00:49:12.496Z,0.90
2023-01-26T00:51:40.411Z,0.80
2023-01-26T00:54:08.304Z,0.80
2023-01-26T00:56:37.434Z,0.80
2023-01-26T00:59:07.038Z,0.80
2023-01-26T01:01:34.923Z,0.70
2023-01-26T01:04:02.839Z,0.70
2023-01-26T01:06:30.753Z,0.70
2023-01-26T01:08:58.694Z,0.70
2023-01-26T01:11:26.589Z,0.80
2023-01-26T01:13:54.503Z,0.80
2023-01-26T01:16:22.516Z,0.80
2023-01-26T01:18:54.864Z,0.90
2023-01-26T01:21:24.197Z,0.90
2023-01-26T01:23:54.453Z,0.80
2023-01-26T01:26:22.422Z,0.80
2023-01-26T01:28:50.788Z,0.60
2023-01-26T01:31:18.751Z,0.60
2023-01-26T01:33:46.747Z,0.50
2023-01-26T01:36:17.287Z,0.50
2023-01-26T01:38:46.877Z,0.60
2023-01-26T01:41:17.068Z,0.60
2023-01-26T01:43:46.371Z,0.60
2023-01-26T01:46:41.329Z,0.60
2023-01-26T01:49:25.074Z,0.60
2023-01-26T01:52:11.365Z,0.70
2023-01-26T01:54:47.135Z,0.80
2023-01-26T01:57:28.740Z,0.80
2023-01-26T02:00:13.415Z,0.70
2023-01-26T02:02:45.303Z,0.80
2023-01-26T02:05:33.635Z,0.80
2023-01-26T02:08:02.685Z,0.80
2023-01-26T02:10:31.771Z,0.90
2023-01-26T02:13:01.899Z,0.90
2023-01-26T02:15:31.769Z,0.90
2023-01-26T02:18:04.963Z,0.90
2023-01-26T02:20:45.275Z,0.90
2023-01-26T02:23:32.942Z,0.80
2023-01-26T02:26:14.979Z,0.70
2023-01-26T02:28:44.995Z,0.70
2023-01-26T02:31:14.386Z,0.80
2023-01-26T02:33:43.901Z,0.80
2023-01-26T02:36:30.467Z,0.70
2023-01-26T02:39:24.971Z,0.70
2023-01-26T02:42:12.277Z,0.70
2023-01-26T02:44:43.140Z,0.70
2023-01-26T02:47:17.937Z,0.80
2023-01-26T02:49:54.011Z,0.80
2023-01-26T02:52:26.856Z,0.80
2023-01-26T02:55:25.950Z,0.80
2023-01-26T02:57:56.269Z,0.80
2023-01-26T03:00:26.697Z,0.70
2023-01-26T03:02:57.687Z,0.70
2023-01-26T03:05:28.156Z,0.70
2023-01-26T03:07:56.928Z,0.70
2023-01-26T03:10:30.718Z,0.60
2023-01-26T03:12:58.716Z,0.70
2023-01-26T03:15:53.390Z,0.60
2023-01-26T03:18:43.116Z,0.60
2023-01-26T03:21:33.410Z,0.60
2023-01-26T03:24:20.947Z,0.60
2023-01-26T03:27:08.990Z,0.60
2023-01-26T03:29:40.523Z,0.50
2023-01-26T03:32:08.471Z,0.60
2023-01-26T03:34:36.600Z,0.60
2023-01-26T03:37:06.140Z,0.70
2023-01-26T03:40:03.317Z,0.70
2023-01-26T03:42:50.295Z,0.80
2023-01-26T03:45:36.780Z,0.80
2023-01-26T03:48:25.195Z,0.80
2023-01-26T03:51:11.667Z,0.80
2023-01-26T03:54:01.508Z,0.80
2023-01-26T03:56:33.497Z,0.70
2023-01-26T03:59:09.684Z,0.70
2023-01-26T04:01:42.255Z,0.70
2023-01-26T04:04:30.619Z,0.70
2023-01-26T04:07:17.192Z,0.70
2023-01-26T04:09:50.444Z,0.80
2023-01-26T04:12:18.395Z,0.80
2023-01-26T04:15:17.194Z,0.80
2023-01-26T04:18:03.682Z,0.80
2023-01-26T04:20:50.145Z,0.80
2023-01-26T04:23:21.322Z,0.80
2023-01-26T04:25:54.535Z,0.80
2023-01-26T04:28:24.988Z,0.80
2023-01-26T04:30:53.277Z,0.70
2023-01-26T04:33:21.526Z,0.70
2023-01-26T04:35:50.498Z,0.70
2023-01-26T04:38:18.476Z,0.70
2023-01-26T04:40:46.441Z,0.70
2023-01-26T04:43:14.371Z,0.70
2023-01-26T04:45:42.800Z,0.70
2023-01-26T04:48:10.739Z,0.70
2023-01-26T04:50:38.769Z,0.70
2023-01-26T04:53:07.130Z,0.60
2023-01-26T04:55:35.032Z,0.60
2023-01-26T04:58:03.942Z,0.60
2023-01-26T05:00:32.143Z,0.60
2023-01-26T05:03:01.348Z,0.60
2023-01-26T05:05:29.735Z,0.70
2023-01-26T05:07:57.702Z,0.70
2023-01-26T05:10:28.207Z,0.70
2023-01-26T05:13:17.892Z,0.60
2023-01-26T05:16:08.117Z,0.60
2023-01-26T05:18:47.169Z,0.60
2023-01-26T05:21:38.159Z,0.60
2023-01-26T05:24:07.387Z,0.50
2023-01-26T05:27:10.368Z,0.50
2023-01-26T05:29:43.034Z,0.50
2023-01-26T05:32:11.022Z,0.60
2023-01-26T05:34:39.132Z,0.50
2023-01-26T05:37:07.630Z,0.50
2023-01-26T05:39:36.748Z,0.50
2023-01-26T05:42:06.820Z,0.50
2023-01-26T05:44:55.071Z,0.50
2023-01-26T05:47:24.183Z,0.50
2023-01-26T05:49:52.849Z,0.50
2023-01-26T05:52:27.776Z,0.50
2023-01-26T05:54:55.751Z,0.50
2023-01-26T05:57:24.930Z,0.50
2023-01-26T06:00:00.047Z,0.50
2023-01-26T06:02:28.468Z,0.50
2023-01-26T06:04:56.715Z,0.50
2023-01-26T06:07:24.640Z,0.50
2023-01-26T06:10:11.301Z,0.60
2023-01-26T06:13:08.757Z,0.50
2023-01-26T06:15:45.112Z,0.60
2023-01-26T06:18:13.604Z,0.60
2023-01-26T06:20:49.220Z,0.60
2023-01-26T06:23:17.230Z,0.60
2023-01-26T06:25:46.893Z,0.50
2023-01-26T06:28:15.098Z,0.50
2023-01-26T06:30:43.914Z,0.50
2023-01-26T06:33:13.672Z,0.50
2023-01-26T06:35:44.211Z,0.50
2023-01-26T06:38:16.693Z,0.50
2023-01-26T06:40:45.607Z,0.50
2023-01-26T06:43:13.538Z,0.50
2023-01-26T06:45:43.165Z,0.40
2023-01-26T06:48:11.235Z,0.40
2023-01-26T06:50:41.293Z,0.40
2023-01-26T06:53:27.418Z,0.40
2023-01-26T06:56:22.383Z,0.50
2023-01-26T06:59:00.477Z,0.40
2023-01-26T07:01:52.444Z,0.30
2023-01-26T07:04:20.367Z,0.40
2023-01-26T07:06:48.256Z,0.50
2023-01-26T07:09:16.203Z,0.50
2023-01-26T07:11:44.162Z,0.60
2023-01-26T07:14:12.086Z,0.50
2023-01-26T07:16:40.067Z,0.60
2023-01-26T07:19:08.996Z,0.60
2023-01-26T07:21:37.233Z,0.60
2023-01-26T07:24:05.462Z,0.60
2023-01-26T07:26:33.391Z,0.60
2023-01-26T07:29:01.356Z,0.60
2023-01-26T07:31:29.375Z,0.50
2023-01-26T07:33:57.392Z,0.50
2023-01-26T07:36:25.318Z,0.50
2023-01-26T07:38:53.236Z,0.50
2023-01-26T07:41:21.177Z,0.50
2023-01-26T07:43:51.125Z,0.50
2023-01-26T07:46:20.438Z,0.50
2023-01-26T07:48:48.380Z,0.50
2023-01-26T07:51:16.286Z,0.50
2023-01-26T07:53:45.134Z,0.50
2023-01-26T07:56:15.600Z,0.50
2023-01-26T07:58:43.849Z,0.50
2023-01-26T08:01:14.376Z,0.50
2023-01-26T08:03:43.240Z,0.50
2023-01-26T08:06:13.139Z,0.40
2023-01-26T08:08:42.999Z,0.50
2023-01-26T08:11:15.835Z,0.50
2023-01-26T08:13:48.037Z,0.50
2023-01-26T08:16:16.242Z,0.50
2023-01-26T08:18:46.346Z,0.50
2023-01-26T08:21:15.914Z,0.50
2023-01-26T08:23:44.207Z,0.50
2023-01-26T08:26:14.595Z,0.60
2023-01-26T08:28:42.718Z,0.60
2023-01-26T08:31:13.455Z,0.60
2023-01-26T08:33:43.443Z,0.60
2023-01-26T08:36:14.623Z,0.50
2023-01-26T08:38:43.384Z,0.50
2023-01-26T08:41:12.089Z,0.50
2023-01-26T08:43:40.433Z,0.60
2023-01-26T08:46:08.798Z,0.60
2023-01-26T08:48:37.032Z,0.60
2023-01-26T08:51:06.483Z,0.60
2023-01-26T08:53:35.972Z,0.60
2023-01-26T08:56:08.638Z,0.60
2023-01-26T08:58:37.559Z,0.60
2023-01-26T09:01:16.508Z,0.60
2023-01-26T09:03:45.712Z,0.60
2023-01-26T09:06:15.741Z,0.60
2023-01-26T09:08:43.689Z,0.60
2023-01-26T09:11:11.994Z,0.60
2023-01-26T09:13:44.217Z,0.60
2023-01-26T09:16:21.041Z,0.70
2023-01-26T09:18:53.194Z,0.70
2023-01-26T09:21:21.992Z,0.70
2023-01-26T09:23:49.873Z,0.70
2023-01-26T09:26:17.832Z,0.80
2023-01-26T09:28:45.767Z,0.70
2023-01-26T09:31:13.967Z,0.70
2023-01-26T09:33:44.057Z,0.70
2023-01-26T09:36:13.472Z,0.70
2023-01-26T09:38:41.588Z,0.70
2023-01-26T09:41:31.278Z,0.70
2023-01-26T09:44:05.553Z,0.60
2023-01-26T09:47:08.314Z,0.60
2023-01-26T09:49:49.426Z,0.70
2023-01-26T09:52:28.710Z,0.60
2023-01-26T09:55:00.492Z,0.60
2023-01-26T09:57:48.950Z,0.70
2023-01-26T10:00:29.735Z,0.60
2023-01-26T10:03:34.235Z,0.60
2023-01-26T10:06:25.165Z,0.60
2023-01-26T10:09:22.596Z,0.60
2023-01-26T10:11:55.930Z,0.60
2023-01-26T10:14:34.863Z,0.60
2023-01-26T10:17:06.252Z,0.70
2023-01-26T10:19:45.284Z,0.70
2023-01-26T10:22:23.507Z,0.70
2023-01-26T10:25:00.630Z,0.70
2023-01-26T10:27:30.564Z,0.70
2023-01-26T10:29:58.479Z,0.70
2023-01-26T10:32:26.860Z,0.60
2023-01-26T10:34:55.202Z,0.60
2023-01-26T10:37:30.790Z,0.60
2023-01-26T10:40:05.167Z,0.60
2023-01-26T10:42:35.123Z,0.60
2023-01-26T10:45:24.216Z,0.70
2023-01-26T10:48:17.301Z,0.70
2023-01-26T10:50:46.193Z,0.70
2023-01-26T10:53:25.871Z,0.70
2023-01-26T10:56:16.019Z,0.70
2023-01-26T10:58:47.060Z,0.70
2023-01-26T11:01:17.619Z,0.70
2023-01-26T11:04:01.542Z,0.70
2023-01-26T11:06:34.207Z,0.60
2023-01-26T11:09:19.277Z,0.70
2023-01-26T11:12:07.126Z,0.70
2023-01-26T11:14:35.864Z,0.70
2023-01-26T11:17:26.286Z,0.70
2023-01-26T11:20:15.896Z,0.80
2023-01-26T11:22:56.630Z,0.80
2023-01-26T11:25:33.426Z,0.80
2023-01-26T11:28:17.388Z,0.70
2023-01-26T11:31:05.786Z,0.80
2023-01-26T11:33:45.736Z,0.70
2023-01-26T11:36:35.541Z,0.80
2023-01-26T11:39:29.772Z,0.80
2023-01-26T11:42:31.107Z,0.80
2023-01-26T11:45:19.231Z,0.70
2023-01-26T11:48:14.315Z,0.70
2023-01-26T11:51:06.978Z,0.80
2023-01-26T11:53:40.577Z,0.80
2023-01-26T11:56:21.011Z,0.80
2023-01-26T11:59:01.358Z,0.80
2023-01-26T12:01:47.387Z,0.80
2023-01-26T12:04:23.778Z,0.80
2023-01-26T12:07:07.822Z,0.80
2023-01-26T12:09:49.581Z,0.90
2023-01-26T12:12:44.464Z,0.90
2023-01-26T12:15:18.683Z,0.90
2023-01-26T12:18:06.614Z,0.90
2023-01-26T12:20:42.373Z,0.90
2023-01-26T12:23:10.205Z,0.90
2023-01-26T12:25:46.128Z,0.90
2023-01-26T12:28:38.373Z,0.80
2023-01-26T12:31:21.913Z,0.70
2023-01-26T12:33:53.229Z,0.60
2023-01-26T12:36:27.518Z,0.60
2023-01-26T12:39:01.604Z,0.70
2023-01-26T12:41:56.269Z,0.70
2023-01-26T12:44:33.511Z,0.70
2023-01-26T12:47:06.326Z,0.70
2023-01-26T12:49:50.934Z,0.70
2023-01-26T12:52:24.735Z,0.80
2023-01-26T12:55:11.247Z,0.80
2023-01-26T12:57:45.330Z,0.80
2023-01-26T13:00:30.854Z,0.70
2023-01-26T13:03:05.624Z,0.70
2023-01-26T13:05:37.094Z,0.60
2023-01-26T13:08:33.061Z,0.70
2023-01-26T13:11:07.668Z,0.70
2023-01-26T13:13:56.886Z,0.80
2023-01-26T13:16:24.745Z,0.80
2023-01-26T13:18:57.256Z,0.70
2023-01-26T13:21:37.181Z,0.70
2023-01-26T13:24:25.128Z,0.70
2023-01-26T13:26:58.679Z,0.70
2023-01-26T13:29:26.552Z,0.70
2023-01-26T13:31:56.209Z,0.70
2023-01-26T13:34:46.520Z,0.70
2023-01-26T13:37:39.867Z,0.70
2023-01-26T13:40:20.211Z,0.70
2023-01-26T13:42:56.944Z,0.70
2023-01-26T13:45:34.920Z,0.70
2023-01-26T13:48:06.333Z,0.60
2023-01-26T13:50:41.719Z,0.70
2023-01-26T13:53:34.517Z,0.70
2023-01-26T13:56:04.563Z,0.70
2023-01-26T13:58:33.190Z,0.60
2023-01-26T14:01:07.638Z,0.70
2023-01-26T14:03:35.756Z,0.60
2023-01-26T14:06:06.398Z,0.60
2023-01-26T14:08:34.626Z,0.60
2023-01-26T14:11:05.600Z,0.60
2023-01-26T14:13:40.124Z,0.60
2023-01-26T14:16:09.211Z,0.60
2023-01-26T14:18:37.206Z,0.60
2023-01-26T14:21:18.324Z,0.60
2023-01-26T14:23:46.271Z,0.70
2023-01-26T14:26:22.155Z,0.70
2023-01-26T14:28:50.127Z,0.70
2023-01-26T14:31:24.568Z,0.70
2023-01-26T14:33:58.452Z,0.70
2023-01-26T14:36:29.339Z,0.60
2023-01-26T14:38:57.940Z,0.60
2023-01-26T14:41:35.395Z,0.60
2023-01-26T14:44:05.118Z,0.70
2023-01-26T14:46:54.289Z,0.60
2023-01-26T14:49:43.998Z,0.60
2023-01-26T14:52:25.321Z,0.60
2023-01-26T14:55:09.870Z,0.60
2023-01-26T14:57:37.890Z,0.60
2023-01-26T15:00:11.273Z,0.60
2023-01-26T15:02:45.137Z,0.70
2023-01-26T15:05:22.543Z,0.70
2023-01-26T15:08:03.931Z,0.70
2023-01-26T15:10:34.542Z,0.70
2023-01-26T15:13:11.120Z,0.70
2023-01-26T15:15:49.556Z,0.60
2023-01-26T15:18:21.939Z,0.60
2023-01-26T15:21:21.218Z,0.60
2023-01-26T15:23:54.157Z,0.60
2023-01-26T15:26:32.282Z,0.50
2023-01-26T15:29:04.388Z,0.50
2023-01-26T15:31:43.684Z,0.40
2023-01-26T15:34:33.255Z,0.50
2023-01-26T15:37:02.617Z,0.50
2023-01-26T15:39:31.345Z,0.50
2023-01-26T15:42:29.000Z,0.60
2023-01-26T15:44:58.452Z,0.60
2023-01-26T15:47:26.936Z,0.60
2023-01-26T15:49:54.859Z,0.60
2023-01-26T15:52:26.908Z,0.60
2023-01-26T15:54:55.098Z,0.60
2023-01-26T15:57:23.106Z,0.60
2023-01-26T15:59:51.058Z,0.60
2023-01-26T16:02:21.251Z,0.60
2023-01-26T16:04:49.765Z,0.70
2023-01-26T16:07:19.680Z,0.60
2023-01-26T16:09:49.873Z,0.60
2023-01-26T16:12:30.872Z,0.70
2023-01-26T16:15:00.424Z,0.70
2023-01-26T16:17:28.877Z,0.70
2023-01-26T16:19:56.779Z,0.70
2023-01-26T16:22:24.704Z,0.70
2023-01-26T16:24:55.835Z,0.70
2023-01-26T16:27:23.924Z,0.60
2023-01-26T16:29:58.262Z,0.60
2023-01-26T16:32:30.551Z,0.60
2023-01-26T16:34:58.565Z,0.60
2023-01-26T16:37:26.532Z,0.70
2023-01-26T16:39:54.465Z,0.70
2023-01-26T16:42:22.878Z,0.70
2023-01-26T16:44:51.183Z,0.70
2023-01-26T16:47:19.051Z,0.70
2023-01-26T16:49:46.983Z,0.60
2023-01-26T16:52:14.906Z,0.60
2023-01-26T16:54:42.862Z,0.70
2023-01-26T16:57:10.775Z,0.70
2023-01-26T16:59:38.702Z,0.70
2023-01-26T17:02:06.769Z,0.70
2023-01-26T17:04:34.754Z,0.70
2023-01-26T17:07:02.722Z,0.70
2023-01-26T17:09:31.251Z,0.70
2023-01-26T17:11:59.103Z,0.70
2023-01-26T17:14:28.385Z,0.70
2023-01-26T17:16:56.277Z,0.60
2023-01-26T17:19:24.258Z,0.70
2023-01-26T17:21:52.347Z,0.70
2023-01-26T17:24:20.365Z,0.60
2023-01-26T17:26:48.342Z,0.60
2023-01-26T17:29:16.264Z,0.60
2023-01-26T17:31:45.045Z,0.60
2023-01-26T17:34:13.117Z,0.60
2023-01-26T17:36:40.966Z,0.60
2023-01-26T17:39:10.929Z,0.50
2023-01-26T17:41:39.053Z,0.60
2023-01-26T17:47:20.227Z,0.60
2023-01-26T17:49:51.514Z,0.60
2023-01-26T17:52:21.351Z,0.60
2023-01-26T17:54:49.543Z,0.60
2023-01-26T17:57:17.458Z,0.60
2023-01-26T17:59:45.451Z,0.60
2023-01-26T18:02:13.552Z,0.60
2023-01-26T18:04:41.458Z,0.50
2023-01-26T18:07:09.371Z,0.50
2023-01-26T18:09:37.266Z,0.50
2023-01-26T18:12:05.351Z,0.50
2023-01-26T18:14:33.243Z,0.50
2023-01-26T18:17:01.124Z,0.50
2023-01-26T18:19:29.092Z,0.50
2023-01-26T18:21:57.050Z,0.50
2023-01-26T18:24:25.003Z,0.50
2023-01-26T18:26:52.975Z,0.50
2023-01-26T18:29:20.860Z,0.50
2023-01-26T18:31:49.237Z,0.50
2023-01-26T18:34:17.266Z,0.50
2023-01-26T18:36:45.156Z,0.50
2023-01-26T18:39:15.743Z,0.40
2023-01-26T18:41:44.449Z,0.40
2023-01-26T18:44:12.573Z,0.40
2023-01-26T18:46:40.652Z,0.40
2023-01-26T18:49:08.508Z,0.30
2023-01-26T18:51:37.093Z,0.30
2023-01-26T18:54:06.774Z,0.30
2023-01-26T18:56:34.832Z,0.30
2023-01-26T18:59:02.704Z,0.30
2023-01-26T19:01:30.697Z,0.40
2023-01-26T19:03:59.867Z,0.30
2023-01-26T19:06:29.568Z,0.30
2023-01-26T19:09:01.394Z,0.30
2023-01-26T19:11:34.422Z,0.20
2023-01-26T19:14:09.506Z,0.20
2023-01-26T19:16:38.109Z,0.20
2023-01-26T19:19:06.308Z,0.20
2023-01-26T19:21:34.444Z,0.20
2023-01-26T19:24:08.693Z,0.10
2023-01-26T19:26:36.740Z,0.10
2023-01-26T19:29:05.247Z,0.20
2023-01-26T19:31:33.812Z,0.20
2023-01-26T19:34:03.800Z,0.20
2023-01-26T19:36:33.557Z,0.20
2023-01-26T19:39:02.652Z,0.20
2023-01-26T19:41:31.167Z,0.10
2023-01-26T19:43:59.078Z,0.00
2023-01-26T19:46:26.983Z,0.00
2023-01-26T19:48:54.948Z,0.00
2023-01-26T19:51:25.969Z,0.10
2023-01-26T19:53:59.240Z,0.10
2023-01-26T19:56:30.431Z,0.10
2023-01-26T19:59:00.869Z,0.00
2023-01-26T20:01:30.619Z,0.10
2023-01-26T20:04:01.588Z,0.10
2023-01-26T20:06:33.071Z,0.10
2023-01-26T20:09:01.979Z,0.10
2023-01-26T20:11:30.785Z,0.10
2023-01-26T20:14:03.059Z,0.00
2023-01-26T20:16:31.930Z,0.00
2023-01-26T20:19:01.550Z,0.00
2023-01-26T20:21:30.423Z,0.00
2023-01-26T20:24:04.659Z,-0.10
2023-01-26T20:26:33.139Z,0.00
2023-01-26T20:29:01.466Z,0.00
2023-01-26T20:31:29.757Z,0.00
2023-01-26T20:33:59.508Z,0.10
2023-01-26T20:36:29.665Z,0.10
2023-01-26T20:38:57.703Z,0.10
2023-01-26T20:41:30.053Z,0.10
2023-01-26T20:44:02.014Z,0.10
2023-01-26T20:46:33.551Z,0.10
2023-01-26T20:49:02.311Z,0.10
2023-01-26T20:51:36.737Z,0.10
2023-01-26T20:54:07.672Z,0.10
2023-01-26T20:56:36.697Z,0.10
2023-01-26T20:59:05.507Z,0.10
2023-01-26T21:01:37.536Z,0.10
2023-01-26T21:04:06.626Z,0.10
2023-01-26T21:06:34.973Z,0.10
2023-01-26T21:09:03.182Z,0.10
2023-01-26T21:11:32.378Z,0.10
2023-01-26T21:14:04.366Z,0.00
2023-01-26T21:16:37.212Z,0.00
2023-01-26T21:19:05.197Z,0.00
2023-01-26T21:21:33.331Z,-0.10
2023-01-26T21:24:01.424Z,0.00
2023-01-26T21:26:33.943Z,0.00
2023-01-26T21:29:01.975Z,0.00
2023-01-26T21:31:32.693Z,0.00
2023-01-26T21:34:01.729Z,0.00
2023-01-26T21:36:31.938Z,0.00
2023-01-26T21:39:01.255Z,0.00
2023-01-26T21:41:50.823Z,0.00
2023-01-26T21:44:23.006Z,0.00
2023-01-26T21:46:55.227Z,0.00
2023-01-26T21:49:25.238Z,0.00
2023-01-26T21:52:20.972Z,0.00
2023-01-26T21:54:51.844Z,0.00
2023-01-26T21:57:39.265Z,0.00
2023-01-26T22:00:07.916Z,0.00
2023-01-26T22:02:35.830Z,0.00
2023-01-26T22:05:04.895Z,-0.10
2023-01-26T22:07:35.809Z,0.00
2023-01-26T22:10:07.335Z,0.00
2023-01-26T22:12:36.745Z,0.00
2023-01-26T22:15:06.731Z,0.00
2023-01-26T22:17:34.882Z,0.00
2023-01-26T22:20:03.391Z,0.00
2023-01-26T22:22:32.375Z,-0.10
2023-01-26T22:25:01.204Z,0.00
2023-01-26T22:27:34.549Z,0.00
2023-01-26T22:30:06.064Z,0.00
2023-01-26T22:32:38.082Z,-0.10
2023-01-26T22:35:06.594Z,-0.10
2023-01-26T22:37:35.619Z,-0.10
2023-01-26T22:40:04.169Z,-0.10
2023-01-26T22:42:32.393Z,-0.10
2023-01-26T22:45:01.024Z,-0.10
2023-01-26T22:47:30.549Z,-0.10
2023-01-26T22:49:58.899Z,-0.10
2023-01-26T22:52:30.041Z,0.00
2023-01-26T22:54:58.827Z,0.00
2023-01-26T22:57:27.357Z,0.00
2023-01-26T22:59:56.627Z,-0.10
2023-01-26T23:02:25.147Z,0.00
2023-01-26T23:04:53.568Z,0.00
2023-01-26T23:07:21.496Z,0.00
2023-01-26T23:09:49.413Z,0.00
2023-01-26T23:12:17.666Z,-0.10
2023-01-26T23:14:45.966Z,-0.10
2023-01-26T23:17:14.066Z,-0.10
2023-01-26T23:19:42.778Z,-0.10
2023-01-26T23:22:10.671Z,-0.20
2023-01-26T23:24:41.757Z,-0.10
2023-01-26T23:27:09.794Z,-0.10
2023-01-26T23:29:38.755Z,-0.20
2023-01-26T23:32:08.072Z,-0.20
2023-01-26T23:34:42.115Z,-0.20
2023-01-26T23:37:10.475Z,-0.20
2023-01-26T23:39:38.595Z,-0.20
2023-01-26T23:42:06.585Z,-0.20
2023-01-26T23:44:34.476Z,-0.20
2023-01-26T23:47:02.470Z,-0.20
2023-01-26T23:49:30.446Z,-0.20
2023-01-26T23:51:58.387Z,-0.20
2023-01-26T23:54:26.326Z,-0.20
2023-01-26T23:56:54.239Z,-0.10
2023-01-26T23:59:22.407Z,-0.10
